createdAt,value
2019-02-28T00:00:55.260Z,77.91
2019-02-28T00:03:26.123Z,77.58
2019-02-28T00:05:55.882Z,77.34
2019-02-28T00:08:25.160Z,77.52
2019-02-28T00:10:54.536Z,77.09
2019-02-28T00:13:24.044Z,76.75
2019-02-28T00:15:53.326Z,77.10
2019-02-28T00:18:22.673Z,77.37
2019-02-28T00:20:52.245Z,77.39
2019-02-28T00:23:22.000Z,77.83
2019-02-28T00:25:51.999Z,78.04
2019-02-28T00:28:23.112Z,78.47
2019-02-28T00:30:52.701Z,78.69
2019-02-28T00:33:22.089Z,78.82
2019-02-28T00:35:51.393Z,78.79
2019-02-28T00:38:20.718Z,79.06
2019-02-28T00:40:50.209Z,78.94
2019-02-28T00:43:22.301Z,78.87
2019-02-28T00:45:50.610Z,79.08
2019-02-28T00:48:21.672Z,78.77
2019-02-28T00:50:51.185Z,78.72
2019-02-28T00:53:20.451Z,78.52
2019-02-28T00:55:49.940Z,78.78
2019-02-28T00:58:19.308Z,79.28
2019-02-28T01:00:48.628Z,79.46
2019-02-28T01:03:17.974Z,79.62
2019-02-28T01:05:47.312Z,79.46
2019-02-28T01:08:19.173Z,79.25
2019-02-28T01:10:47.738Z,78.99
2019-02-28T01:13:17.074Z,79.00
2019-02-28T01:15:46.439Z,79.09
2019-02-28T01:18:15.810Z,79.20
2019-02-28T01:20:49.994Z,79.34
2019-02-28T01:23:16.139Z,79.73
2019-02-28T01:25:45.762Z,79.60
2019-02-28T01:28:15.126Z,79.70
2019-02-28T01:30:44.398Z,79.81
2019-02-28T01:33:13.690Z,79.75
2019-02-28T01:35:43.010Z,79.84
2019-02-28T01:38:12.328Z,79.93
2019-02-28T01:40:41.722Z,79.98
2019-02-28T01:43:11.101Z,80.10
2019-02-28T01:45:43.492Z,80.32
2019-02-28T01:48:11.642Z,80.60
2019-02-28T01:50:40.956Z,80.95
2019-02-28T01:53:10.261Z,81.32
2019-02-28T01:55:39.767Z,81.22
2019-02-28T01:58:09.156Z,81.26
2019-02-28T02:00:38.456Z,81.28
2019-02-28T02:03:09.558Z,81.49
2019-02-28T02:05:38.988Z,81.37
2019-02-28T02:08:08.321Z,81.68
2019-02-28T02:10:37.834Z,81.60
2019-02-28T02:13:07.152Z,82.04
2019-02-28T02:15:36.481Z,82.21
2019-02-28T02:18:06.350Z,82.74
2019-02-28T02:20:36.961Z,82.83
2019-02-28T02:23:06.309Z,82.78
2019-02-28T02:25:37.525Z,83.16
2019-02-28T02:28:06.978Z,83.41
2019-02-28T02:30:36.362Z,83.81
2019-02-28T02:33:05.904Z,83.95
2019-02-28T02:35:35.202Z,84.11
2019-02-28T02:38:04.832Z,84.23
2019-02-28T02:40:34.441Z,84.50
2019-02-28T02:43:03.696Z,84.33
2019-02-28T02:45:33.042Z,84.38
2019-02-28T02:48:05.298Z,84.77
2019-02-28T02:50:35.908Z,84.86
2019-02-28T02:53:06.459Z,85.13
2019-02-28T02:55:35.926Z,85.07
2019-02-28T02:58:05.356Z,85.22
2019-02-28T03:00:34.661Z,85.35
2019-02-28T03:03:06.167Z,85.79
2019-02-28T03:05:36.674Z,86.08
2019-02-28T03:08:06.152Z,85.94
2019-02-28T03:10:35.436Z,86.10
2019-02-28T03:13:06.262Z,86.52
2019-02-28T03:15:35.871Z,86.75
2019-02-28T03:18:05.167Z,86.77
2019-02-28T03:20:34.478Z,87.21
2019-02-28T03:23:03.898Z,87.26
2019-02-28T03:25:33.184Z,87.34
2019-02-28T03:28:03.464Z,87.31
2019-02-28T03:30:33.741Z,87.80
2019-02-28T03:33:03.461Z,88.10
2019-02-28T03:35:43.147Z,88.28
2019-02-28T03:38:10.545Z,88.50
2019-02-28T03:40:39.714Z,88.66
2019-02-28T03:43:07.003Z,88.90
2019-02-28T03:45:36.517Z,88.68
2019-02-28T03:48:05.951Z,89.16
2019-02-28T03:50:35.217Z,88.97
2019-02-28T03:53:04.909Z,89.32
2019-02-28T03:55:40.317Z,89.32
2019-02-28T03:58:05.966Z,89.44
2019-02-28T04:00:35.448Z,89.40
2019-02-28T04:03:04.778Z,89.26
2019-02-28T04:05:34.034Z,89.06
2019-02-28T04:08:03.462Z,89.02
2019-02-28T04:10:32.817Z,89.04
2019-02-28T04:13:02.194Z,89.11
2019-02-28T04:15:31.721Z,89.08
2019-02-28T04:18:06.880Z,89.46
2019-02-28T04:20:36.381Z,89.58
2019-02-28T04:23:03.206Z,89.71
2019-02-28T04:25:32.499Z,89.88
2019-02-28T04:28:02.148Z,89.99
2019-02-28T04:30:34.292Z,90.14
2019-02-28T04:33:03.785Z,90.42
2019-02-28T04:35:33.105Z,90.52
2019-02-28T04:38:02.463Z,90.78
2019-02-28T04:40:32.008Z,90.57
2019-02-28T04:43:01.341Z,90.32
2019-02-28T04:45:30.712Z,90.29
2019-02-28T04:48:00.188Z,90.21
2019-02-28T04:50:32.143Z,89.75
2019-02-28T04:53:00.521Z,90.09
2019-02-28T04:55:30.635Z,89.98
2019-02-28T04:58:00.029Z,90.02
2019-02-28T05:00:29.512Z,89.73
2019-02-28T05:02:58.912Z,89.74
2019-02-28T05:05:28.339Z,89.51
2019-02-28T05:07:57.797Z,90.15
2019-02-28T05:10:27.120Z,89.93
2019-02-28T05:12:56.436Z,90.02
2019-02-28T05:15:25.870Z,90.03
2019-02-28T05:17:55.887Z,89.72
2019-02-28T05:20:26.059Z,89.77
2019-02-28T05:22:55.389Z,89.78
2019-02-28T05:25:24.770Z,89.84
2019-02-28T05:27:54.115Z,89.72
2019-02-28T05:30:23.626Z,90.08
2019-02-28T05:32:52.925Z,90.20
2019-02-28T05:35:25.585Z,90.12
2019-02-28T05:37:53.934Z,90.20
2019-02-28T05:40:23.211Z,90.32
2019-02-28T05:42:57.961Z,90.41
2019-02-28T05:45:23.600Z,90.65
2019-02-28T05:47:52.926Z,91.22
2019-02-28T05:50:22.288Z,91.49
2019-02-28T05:52:51.669Z,91.60
2019-02-28T05:55:24.645Z,91.59
2019-02-28T05:57:52.315Z,91.64
2019-02-28T06:00:22.857Z,91.79
2019-02-28T06:02:54.480Z,91.85
2019-02-28T06:05:23.267Z,92.07
2019-02-28T06:07:52.535Z,92.09
2019-02-28T06:10:24.718Z,92.25
2019-02-28T06:12:53.100Z,92.23
2019-02-28T06:15:22.419Z,92.21
2019-02-28T06:17:54.613Z,92.22
2019-02-28T06:20:22.847Z,92.79
2019-02-28T06:22:52.230Z,92.72
2019-02-28T06:25:23.634Z,92.79
2019-02-28T06:27:52.770Z,92.29
2019-02-28T06:30:22.088Z,91.10
2019-02-28T06:32:51.382Z,89.61
2019-02-28T06:35:21.035Z,88.54
2019-02-28T06:37:50.372Z,87.84
2019-02-28T06:40:19.674Z,86.97
2019-02-28T06:42:49.141Z,86.03
2019-02-28T06:45:18.458Z,85.37
2019-02-28T06:47:49.763Z,84.30
2019-02-28T06:50:19.027Z,83.56
2019-02-28T06:52:48.365Z,81.79
2019-02-28T06:55:21.947Z,80.21
2019-02-28T06:57:51.344Z,79.76
2019-02-28T07:00:20.668Z,79.39
2019-02-28T07:02:50.386Z,79.94
2019-02-28T07:05:24.787Z,79.81
2019-02-28T07:07:50.708Z,80.01
2019-02-28T07:10:20.155Z,80.91
2019-02-28T07:12:49.464Z,81.05
2019-02-28T07:15:23.640Z,81.25
2019-02-28T07:17:50.165Z,80.78
2019-02-28T07:20:19.495Z,80.44
2019-02-28T07:22:54.496Z,80.60
2019-02-28T07:25:19.832Z,80.88
2019-02-28T07:27:49.106Z,80.10
2019-02-28T07:30:19.249Z,79.45
2019-02-28T07:32:48.860Z,79.14
2019-02-28T07:35:18.273Z,78.78
2019-02-28T07:37:53.390Z,78.37
2019-02-28T07:40:18.796Z,77.36
2019-02-28T07:42:48.069Z,77.88
2019-02-28T07:45:17.453Z,78.18
2019-02-28T07:47:51.713Z,78.13
2019-02-28T07:50:18.189Z,76.78
2019-02-28T07:52:47.592Z,76.33
2019-02-28T07:55:17.203Z,75.19
2019-02-28T07:57:51.175Z,73.28
2019-02-28T08:00:18.899Z,73.03
2019-02-28T08:02:48.114Z,71.87
2019-02-28T08:05:17.441Z,70.42
2019-02-28T08:07:52.188Z,69.58
2019-02-28T08:10:19.063Z,69.10
2019-02-28T08:12:48.638Z,67.93
2019-02-28T08:15:22.352Z,66.07
2019-02-28T08:17:51.287Z,63.16
2019-02-28T08:20:21.148Z,59.44
2019-02-28T08:22:50.579Z,57.81
2019-02-28T08:25:20.207Z,59.30
2019-02-28T08:27:49.541Z,60.74
2019-02-28T08:30:20.633Z,60.60
2019-02-28T08:32:50.146Z,63.51
2019-02-28T08:35:19.708Z,66.40
2019-02-28T08:37:55.719Z,66.64
2019-02-28T08:40:20.679Z,67.34
2019-02-28T08:42:50.132Z,68.42
2019-02-28T08:45:19.392Z,68.11
2019-02-28T08:47:48.775Z,69.40
2019-02-28T08:50:21.490Z,68.76
2019-02-28T08:52:51.464Z,69.15
2019-02-28T08:55:28.186Z,69.66
2019-02-28T08:57:56.911Z,69.25
2019-02-28T09:00:23.427Z,68.24
2019-02-28T09:02:53.853Z,66.98
2019-02-28T09:05:27.287Z,67.52
2019-02-28T09:07:54.553Z,67.61
2019-02-28T09:10:23.950Z,67.19
2019-02-28T09:12:53.246Z,66.69
2019-02-28T09:15:22.791Z,67.33
2019-02-28T09:17:52.135Z,65.66
2019-02-28T09:20:21.653Z,65.01
2019-02-28T09:22:51.138Z,63.97
2019-02-28T09:25:21.985Z,63.46
2019-02-28T09:27:51.676Z,62.83
2019-02-28T09:30:30.679Z,63.19
2019-02-28T09:33:00.045Z,64.11
2019-02-28T09:35:29.300Z,64.25
2019-02-28T09:38:00.295Z,63.30
2019-02-28T09:40:30.602Z,62.68
2019-02-28T09:43:00.143Z,62.69
2019-02-28T09:45:29.419Z,62.90
2019-02-28T09:48:01.884Z,62.88
2019-02-28T09:50:29.921Z,63.86
2019-02-28T09:52:59.271Z,62.54
2019-02-28T09:55:34.122Z,61.49
2019-02-28T09:57:59.907Z,61.56
2019-02-28T10:00:29.404Z,62.70
2019-02-28T10:02:58.738Z,60.92
2019-02-28T10:05:28.202Z,60.06
2019-02-28T10:08:01.576Z,57.91
2019-02-28T10:10:28.471Z,55.51
2019-02-28T10:12:57.995Z,51.50
2019-02-28T10:15:27.762Z,43.99
2019-02-28T10:17:57.106Z,40.37
2019-02-28T10:20:28.520Z,35.08
2019-02-28T10:22:58.038Z,35.01
2019-02-28T10:25:27.318Z,33.37
2019-02-28T10:28:01.678Z,32.17
2019-02-28T10:30:32.332Z,33.86
2019-02-28T10:32:58.951Z,34.77
2019-02-28T10:35:28.258Z,33.88
2019-02-28T10:37:58.827Z,31.95
2019-02-28T10:40:28.530Z,30.55
2019-02-28T10:42:57.810Z,29.77
2019-02-28T10:45:27.554Z,29.64
2019-02-28T10:47:56.927Z,31.68
2019-02-28T10:50:32.184Z,33.80
2019-02-28T10:52:57.625Z,32.10
2019-02-28T10:55:27.231Z,29.69
2019-02-28T10:57:56.643Z,26.73
2019-02-28T11:00:32.803Z,25.44
2019-02-28T11:03:01.095Z,26.02
2019-02-28T11:05:32.015Z,23.90
2019-02-28T11:08:02.643Z,22.73
2019-02-28T11:10:37.281Z,23.26
2019-02-28T11:13:12.099Z,23.16
2019-02-28T11:15:41.952Z,23.87
2019-02-28T11:18:11.716Z,24.06
2019-02-28T11:20:42.061Z,24.99
2019-02-28T11:23:14.970Z,23.74
2019-02-28T11:25:43.583Z,23.88
2019-02-28T11:28:13.745Z,22.61
2019-02-28T11:30:44.829Z,23.37
2019-02-28T11:33:15.076Z,22.37
2019-02-28T11:35:44.344Z,23.25
2019-02-28T11:38:13.772Z,22.32
2019-02-28T11:40:44.561Z,22.06
2019-02-28T11:43:14.055Z,21.75
2019-02-28T11:45:44.144Z,21.94
2019-02-28T11:48:18.928Z,24.83
2019-02-28T11:50:45.141Z,28.32
2019-02-28T11:53:14.640Z,29.48
2019-02-28T11:55:43.958Z,33.96
2019-02-28T11:58:16.702Z,36.83
2019-02-28T12:00:44.621Z,38.93
2019-02-28T12:03:14.195Z,37.90
2019-02-28T12:05:43.560Z,41.35
2019-02-28T12:08:12.871Z,40.76
2019-02-28T12:10:42.354Z,40.00
2019-02-28T12:13:11.623Z,41.16
2019-02-28T12:15:40.955Z,38.99
2019-02-28T12:18:10.341Z,39.06
2019-02-28T12:20:39.661Z,40.94
2019-02-28T12:23:08.906Z,39.01
2019-02-28T12:25:39.505Z,38.92
2019-02-28T12:28:09.200Z,41.75
2019-02-28T12:30:40.231Z,41.40
2019-02-28T12:33:09.626Z,39.43
2019-02-28T12:35:40.615Z,39.83
2019-02-28T12:38:10.278Z,42.68
2019-02-28T12:40:42.541Z,39.87
2019-02-28T12:43:10.705Z,40.96
2019-02-28T12:45:40.078Z,39.25
2019-02-28T12:48:09.333Z,39.86
2019-02-28T12:50:38.640Z,41.03
2019-02-28T12:53:08.163Z,40.78
2019-02-28T12:55:38.977Z,40.08
2019-02-28T12:58:08.520Z,38.83
2019-02-28T13:00:38.665Z,39.31
2019-02-28T13:03:09.166Z,39.41
2019-02-28T13:05:38.541Z,39.30
2019-02-28T13:08:08.069Z,36.73
2019-02-28T13:10:37.396Z,40.78
2019-02-28T13:13:07.764Z,36.94
2019-02-28T13:15:37.682Z,40.59
2019-02-28T13:18:09.030Z,37.57
2019-02-28T13:20:38.627Z,39.40
2019-02-28T13:23:07.915Z,38.96
2019-02-28T13:25:37.154Z,35.05
2019-02-28T13:28:07.658Z,37.43
2019-02-28T13:30:39.872Z,36.57
2019-02-28T13:33:10.993Z,36.46
2019-02-28T13:35:45.734Z,39.73
2019-02-28T13:38:17.346Z,38.32
2019-02-28T13:40:44.790Z,37.31
2019-02-28T13:43:20.160Z,40.47
2019-02-28T13:45:43.823Z,39.17
2019-02-28T13:48:13.135Z,40.58
2019-02-28T13:50:42.494Z,37.65
2019-02-28T13:53:19.129Z,37.25
2019-02-28T13:55:43.193Z,38.45
2019-02-28T13:58:12.523Z,36.68
2019-02-28T14:00:45.557Z,37.78
2019-02-28T14:03:13.121Z,37.34
2019-02-28T14:05:42.480Z,40.70
2019-02-28T14:08:12.404Z,40.67
2019-02-28T14:10:42.010Z,38.29
2019-02-28T14:13:11.470Z,40.94
2019-02-28T14:15:42.635Z,40.01
2019-02-28T14:18:12.346Z,40.75
2019-02-28T14:20:41.661Z,41.58
2019-02-28T14:23:11.067Z,41.87
2019-02-28T14:25:41.202Z,38.80
2019-02-28T14:28:10.743Z,38.06
2019-02-28T14:30:40.088Z,38.58
2019-02-28T14:33:09.799Z,38.42
2019-02-28T14:35:39.068Z,41.59
2019-02-28T14:38:08.371Z,41.68
2019-02-28T14:40:37.666Z,39.62
2019-02-28T14:43:07.013Z,36.44
2019-02-28T14:45:39.180Z,42.96
2019-02-28T14:48:07.632Z,40.23
2019-02-28T14:50:36.941Z,38.30
2019-02-28T14:53:06.276Z,40.23
2019-02-28T14:55:37.391Z,39.17
2019-02-28T14:58:06.845Z,42.17
2019-02-28T15:00:38.904Z,41.16
2019-02-28T15:03:08.094Z,41.72
2019-02-28T15:05:38.188Z,42.19
2019-02-28T15:08:07.429Z,42.39
2019-02-28T15:10:36.802Z,41.15
2019-02-28T15:13:06.349Z,44.59
2019-02-28T15:15:36.471Z,39.67
2019-02-28T15:18:06.250Z,40.58
2019-02-28T15:20:35.879Z,39.63
2019-02-28T15:23:05.195Z,39.24
2019-02-28T15:25:34.420Z,39.46
2019-02-28T15:28:03.845Z,39.01
2019-02-28T15:30:34.815Z,39.98
2019-02-28T15:33:04.532Z,40.87
2019-02-28T15:35:34.035Z,41.05
2019-02-28T15:38:05.847Z,40.37
2019-02-28T15:40:35.576Z,40.69
2019-02-28T15:43:04.855Z,40.76
2019-02-28T15:45:36.261Z,41.77
2019-02-28T15:48:05.244Z,42.17
2019-02-28T15:50:34.487Z,42.50
2019-02-28T15:53:03.794Z,44.46
2019-02-28T15:55:35.074Z,47.29
2019-02-28T15:58:05.767Z,48.52
2019-02-28T16:00:36.449Z,51.03
2019-02-28T16:03:05.951Z,50.48
2019-02-28T16:05:35.217Z,48.38
2019-02-28T16:08:08.670Z,48.60
2019-02-28T16:10:35.694Z,49.95
2019-02-28T16:13:07.114Z,49.77
2019-02-28T16:15:36.429Z,48.42
2019-02-28T16:18:08.856Z,48.64
2019-02-28T16:20:38.273Z,48.43
2019-02-28T16:23:07.782Z,47.92
2019-02-28T16:25:37.274Z,48.85
2019-02-28T16:28:08.782Z,49.55
2019-02-28T16:30:38.816Z,50.00
2019-02-28T16:33:08.290Z,49.09
2019-02-28T16:35:37.524Z,50.44
2019-02-28T16:38:09.833Z,51.88
2019-02-28T16:40:38.044Z,50.62
2019-02-28T16:43:07.368Z,50.75
2019-02-28T16:45:41.080Z,51.67
2019-02-28T16:48:11.263Z,51.42
2019-02-28T16:50:40.648Z,52.35
2019-02-28T16:53:14.798Z,52.88
2019-02-28T16:55:41.356Z,53.15
2019-02-28T16:58:10.626Z,54.07
2019-02-28T17:00:42.487Z,54.38
2019-02-28T17:03:11.189Z,54.18
2019-02-28T17:05:40.544Z,53.91
2019-02-28T17:08:10.280Z,55.28
2019-02-28T17:10:43.413Z,53.92
2019-02-28T17:13:22.141Z,54.56
2019-02-28T17:16:09.010Z,54.61
2019-02-28T17:18:38.596Z,54.56
2019-02-28T17:21:07.854Z,54.73
2019-02-28T17:23:38.189Z,53.61
2019-02-28T17:26:07.854Z,54.83
2019-02-28T17:28:51.186Z,54.50
2019-02-28T17:31:41.102Z,55.35
2019-02-28T17:34:11.416Z,56.42
2019-02-28T17:36:40.711Z,56.30
2019-02-28T17:39:11.450Z,56.42
2019-02-28T17:41:41.354Z,57.66
2019-02-28T17:44:41.017Z,58.49
2019-02-28T17:47:38.535Z,58.81
2019-02-28T17:50:42.813Z,60.01
2019-02-28T17:53:50.331Z,61.02
2019-02-28T17:56:37.598Z,61.88
2019-02-28T18:00:16.129Z,62.27
2019-02-28T18:03:27.374Z,65.12
2019-02-28T18:06:32.253Z,67.49
2019-02-28T18:09:48.184Z,67.18
2019-02-28T18:12:44.342Z,68.32
2019-02-28T18:15:49.592Z,67.92
2019-02-28T18:18:59.878Z,68.00
2019-02-28T18:22:07.662Z,69.28
2019-02-28T18:25:21.536Z,70.42
2019-02-28T18:28:29.558Z,70.58
2019-02-28T18:31:06.899Z,70.62
2019-02-28T18:33:36.751Z,71.67
2019-02-28T18:36:09.175Z,72.80
2019-02-28T18:38:38.765Z,73.45
2019-02-28T18:41:08.157Z,74.14
2019-02-28T18:43:37.605Z,73.51
2019-02-28T18:46:07.691Z,74.97
2019-02-28T18:48:37.046Z,75.25
2019-02-28T18:51:06.364Z,74.76
2019-02-28T18:53:35.770Z,74.87
2019-02-28T18:56:05.036Z,74.86
2019-02-28T18:58:34.401Z,74.57
2019-02-28T19:01:03.952Z,75.18
2019-02-28T19:03:33.339Z,75.27
2019-02-28T19:06:02.705Z,75.76
2019-02-28T19:08:32.173Z,75.68
2019-02-28T19:11:01.442Z,76.29
2019-02-28T19:13:30.769Z,76.33
2019-02-28T19:16:00.187Z,76.62
2019-02-28T19:18:29.567Z,76.75
2019-02-28T19:20:58.849Z,77.01
2019-02-28T19:23:28.098Z,77.15
2019-02-28T19:25:57.387Z,77.30
2019-02-28T19:28:26.683Z,77.42
2019-02-28T19:30:56.273Z,77.78
2019-02-28T19:33:25.591Z,77.84
2019-02-28T19:35:54.896Z,78.28
2019-02-28T19:38:24.195Z,78.89
2019-02-28T19:40:53.513Z,79.24
2019-02-28T19:43:22.800Z,78.96
2019-02-28T19:45:52.538Z,79.12
2019-02-28T19:48:21.788Z,79.08
2019-02-28T19:50:51.054Z,79.61
2019-02-28T19:53:20.736Z,79.29
2019-02-28T19:55:50.073Z,79.53
2019-02-28T19:58:19.363Z,79.75
2019-02-28T20:00:48.787Z,79.94
2019-02-28T20:03:18.064Z,80.07
2019-02-28T20:05:47.368Z,80.69
2019-02-28T20:08:16.850Z,81.20
2019-02-28T20:10:47.169Z,81.48
2019-02-28T20:13:16.634Z,81.87
2019-02-28T20:15:46.040Z,81.84
2019-02-28T20:18:15.465Z,81.90
2019-02-28T20:20:44.839Z,82.02
2019-02-28T20:23:14.154Z,81.79
2019-02-28T20:25:43.474Z,82.29
2019-02-28T20:28:12.795Z,82.35
2019-02-28T20:30:42.202Z,82.01
2019-02-28T20:33:11.498Z,82.16
2019-02-28T20:35:40.720Z,82.52
2019-02-28T20:38:10.274Z,82.05
2019-02-28T20:40:39.632Z,81.82
2019-02-28T20:43:08.962Z,81.59
2019-02-28T20:45:38.319Z,81.85
2019-02-28T20:48:07.642Z,81.87
2019-02-28T20:50:39.309Z,82.14
2019-02-28T20:53:09.044Z,82.62
2019-02-28T20:55:38.310Z,82.45
2019-02-28T20:58:07.674Z,82.83
2019-02-28T21:00:36.953Z,83.15
2019-02-28T21:03:06.417Z,83.35
2019-02-28T21:05:35.932Z,83.28
2019-02-28T21:08:05.341Z,83.60
2019-02-28T21:10:34.803Z,84.03
2019-02-28T21:13:04.269Z,84.18
2019-02-28T21:15:33.502Z,84.35
2019-02-28T21:18:02.885Z,84.22
2019-02-28T21:20:32.270Z,84.68
2019-02-28T21:23:01.645Z,84.63
2019-02-28T21:25:30.994Z,84.83
2019-02-28T21:28:00.514Z,84.65
2019-02-28T21:30:29.799Z,84.76
2019-02-28T21:32:59.078Z,84.62
2019-02-28T21:35:29.415Z,85.33
2019-02-28T21:37:58.726Z,85.73
2019-02-28T21:40:28.073Z,85.81
2019-02-28T21:42:57.523Z,86.03
2019-02-28T21:45:27.009Z,85.98
2019-02-28T21:47:56.290Z,86.35
2019-02-28T21:50:25.653Z,86.42
2019-02-28T21:52:54.982Z,86.44
2019-02-28T21:55:24.320Z,86.60
2019-02-28T21:57:53.870Z,86.56
2019-02-28T22:00:24.115Z,86.61
2019-02-28T22:02:53.337Z,86.83
2019-02-28T22:05:22.611Z,87.30
2019-02-28T22:07:51.921Z,87.17
2019-02-28T22:10:21.206Z,86.82
2019-02-28T22:12:50.602Z,87.22
2019-02-28T22:15:19.976Z,86.98
2019-02-28T22:17:49.341Z,87.04
2019-02-28T22:20:18.880Z,86.98
2019-02-28T22:22:48.201Z,87.06
2019-02-28T22:25:17.468Z,87.28
2019-02-28T22:27:47.205Z,87.58
2019-02-28T22:30:49.224Z,87.43
2019-02-28T22:33:40.936Z,87.21
2019-02-28T22:36:12.401Z,87.27
2019-02-28T22:38:41.742Z,87.46
2019-02-28T22:41:11.145Z,87.47
2019-02-28T22:43:40.396Z,86.77
2019-02-28T22:46:09.712Z,86.16
2019-02-28T22:48:39.041Z,86.17
2019-02-28T22:51:08.383Z,86.27
2019-02-28T22:56:07.192Z,86.41
2019-02-28T22:58:36.503Z,86.54
2019-02-28T23:01:12.336Z,86.66
2019-02-28T23:03:41.805Z,87.16
2019-02-28T23:06:11.245Z,87.50
2019-02-28T23:08:40.858Z,87.52
2019-02-28T23:11:10.106Z,87.61
2019-02-28T23:13:39.445Z,87.84
2019-02-28T23:16:08.955Z,88.09
2019-02-28T23:18:38.211Z,88.21
2019-02-28T23:21:07.557Z,88.40
2019-02-28T23:23:36.962Z,88.37
2019-02-28T23:26:13.912Z,88.58
2019-02-28T23:28:49.743Z,88.38
2019-02-28T23:31:54.153Z,89.06
2019-02-28T23:34:47.143Z,88.79
2019-02-28T23:37:16.478Z,88.82
2019-02-28T23:39:45.801Z,89.13
2019-02-28T23:42:15.313Z,89.17
2019-02-28T23:44:44.624Z,89.33
2019-02-28T23:47:13.958Z,89.39
2019-02-28T23:49:43.387Z,89.40
2019-02-28T23:52:12.694Z,89.18
2019-02-28T23:54:42.035Z,89.12
2019-02-28T23:57:11.320Z,89.10
2019-02-28T23:59:40.569Z,89.32
